KMYF/MYF METAR and TAF weather

Enter ICAO airport designator
Station Type Date Time Source
KMYF METAR 2019/12/07 06:53 UTC NOAA

KMYF 070653Z AUTO 00000KT 10SM OVC100 17/12 A3013 RMK AO2 SLP199 T01670122


Station Type Date Time Source
KMYF Decoded METAR 2019/12/07 06:53 UTC NOAA

SAN DIEGO MONTGOMERY FIELD, CA, United States (KMYF) 32-49N 117-08W 136M
Dec 07, 2019 - 01:53 AM EST / 2019.12.07 0653 UTC
Wind: Calm:0
Visibility: 10 mile(s):0
Sky conditions: overcast
Temperature: 62.1 F (16.7 C)
Dew Point: 54.0 F (12.2 C)
Relative Humidity: 74%
Pressure (altimeter): 30.13 in. Hg (1020 hPa)
ob: KMYF 070653Z AUTO 00000KT 10SM OVC100 17/12 A3013 RMK AO2 SLP199 T01670122
cycle: 7

Station Type Date Time Source
KMYF TAF UTC NOAA

Error!

Example: see airport list